createdAt,value
2019-02-27T00:01:34.761Z,19.20
2019-02-27T00:04:03.059Z,20.03
2019-02-27T00:06:31.118Z,20.07
2019-02-27T00:09:00.521Z,17.93
2019-02-27T00:11:28.443Z,18.70
2019-02-27T00:13:57.969Z,18.10
2019-02-27T00:16:26.055Z,20.23
2019-02-27T00:18:53.763Z,20.40
2019-02-27T00:21:21.376Z,21.83
2019-02-27T00:23:48.916Z,23.77
2019-02-27T00:26:17.834Z,22.27
2019-02-27T00:28:45.403Z,24.60
2019-02-27T00:31:13.476Z,19.97
2019-02-27T00:33:41.063Z,22.20
2019-02-27T00:36:11.998Z,21.77
2019-02-27T00:38:38.701Z,23.30
2019-02-27T00:41:06.453Z,21.20
2019-02-27T00:43:34.722Z,20.93
2019-02-27T00:46:02.720Z,22.10
2019-02-27T00:48:30.290Z,22.27
2019-02-27T00:50:57.892Z,20.57
2019-02-27T00:53:25.843Z,21.57
2019-02-27T00:55:54.376Z,20.80
2019-02-27T00:58:21.926Z,22.03
2019-02-27T01:00:49.403Z,21.87
2019-02-27T01:03:16.959Z,23.37
2019-02-27T01:05:44.553Z,25.40
2019-02-27T01:08:12.141Z,24.63
2019-02-27T01:10:39.671Z,25.23
2019-02-27T01:13:07.156Z,24.73
2019-02-27T01:15:34.591Z,26.17
2019-02-27T01:18:02.075Z,27.53
2019-02-27T01:20:29.749Z,26.53
2019-02-27T01:22:57.334Z,24.73
2019-02-27T01:25:24.916Z,23.73
2019-02-27T01:27:52.472Z,22.43
2019-02-27T01:30:24.018Z,23.47
2019-02-27T01:32:49.746Z,23.07
2019-02-27T01:35:18.978Z,20.60
2019-02-27T01:37:46.758Z,21.43
2019-02-27T01:40:17.833Z,20.13
2019-02-27T01:42:44.620Z,21.60
2019-02-27T01:45:13.662Z,21.33
2019-02-27T01:47:41.202Z,22.97
2019-02-27T01:50:34.093Z,24.17
2019-02-27T01:53:02.301Z,27.13
2019-02-27T01:55:30.211Z,28.03
2019-02-27T01:57:57.824Z,28.53
2019-02-27T02:00:25.401Z,29.37
2019-02-27T02:02:53.263Z,28.37
2019-02-27T02:05:20.751Z,29.10
2019-02-27T02:07:48.318Z,30.17
2019-02-27T02:10:16.193Z,28.37
2019-02-27T02:12:45.667Z,27.87
2019-02-27T02:15:15.705Z,26.33
2019-02-27T02:18:13.782Z,24.97
2019-02-27T02:21:00.771Z,23.50
2019-02-27T02:23:50.938Z,24.03
2019-02-27T02:26:56.348Z,21.73
2019-02-27T02:29:42.269Z,22.17
2019-02-27T02:32:29.228Z,22.87
2019-02-27T02:35:16.333Z,23.67
2019-02-27T02:38:11.981Z,25.67
2019-02-27T02:40:53.643Z,25.13
2019-02-27T02:43:41.627Z,35.30
2019-02-27T02:46:21.101Z,27.83
2019-02-27T02:49:14.493Z,28.83
2019-02-27T02:52:10.587Z,28.93
2019-02-27T02:54:57.635Z,30.43
2019-02-27T02:57:53.960Z,30.93
2019-02-27T03:00:56.742Z,32.30
2019-02-27T03:03:27.109Z,34.50
2019-02-27T03:06:15.320Z,35.73
2019-02-27T03:09:08.245Z,36.10
2019-02-27T03:12:02.283Z,34.40
2019-02-27T03:14:33.515Z,35.70
2019-02-27T03:17:08.762Z,38.33
2019-02-27T03:19:42.645Z,37.80
2019-02-27T03:22:29.145Z,34.90
2019-02-27T03:25:18.214Z,33.70
2019-02-27T03:27:50.092Z,30.37
2019-02-27T03:30:43.222Z,28.43
2019-02-27T03:33:30.274Z,27.83
2019-02-27T03:36:23.587Z,30.63
2019-02-27T03:39:09.529Z,27.27
2019-02-27T03:42:00.198Z,29.73
2019-02-27T03:44:55.788Z,31.73
2019-02-27T03:47:28.803Z,30.70
2019-02-27T03:50:15.661Z,32.07
2019-02-27T03:53:11.113Z,33.93
2019-02-27T03:55:49.658Z,32.83
2019-02-27T03:58:33.314Z,37.70
2019-02-27T04:01:08.468Z,38.13
2019-02-27T04:03:56.563Z,37.13
2019-02-27T04:06:44.089Z,38.20
2019-02-27T04:09:11.629Z,39.23
2019-02-27T04:11:42.821Z,42.57
2019-02-27T04:14:42.349Z,42.13
2019-02-27T04:17:10.469Z,42.23
2019-02-27T04:19:39.200Z,41.93
2019-02-27T04:22:07.742Z,42.17
2019-02-27T04:24:35.401Z,43.83
2019-02-27T04:27:02.851Z,44.70
2019-02-27T04:29:30.385Z,44.17
2019-02-27T04:31:57.968Z,45.23
2019-02-27T04:34:25.509Z,46.87
2019-02-27T04:36:53.099Z,49.43
2019-02-27T04:39:20.956Z,50.27
2019-02-27T04:41:49.558Z,48.93
2019-02-27T04:44:17.986Z,47.77
2019-02-27T04:46:45.877Z,49.30
2019-02-27T04:49:13.430Z,49.10
2019-02-27T04:51:41.366Z,52.07
2019-02-27T04:54:09.001Z,55.93
2019-02-27T04:56:36.978Z,59.10
2019-02-27T04:59:04.548Z,54.90
2019-02-27T05:01:36.478Z,53.67
2019-02-27T05:04:02.209Z,53.63
2019-02-27T05:06:29.899Z,52.90
2019-02-27T05:08:59.974Z,52.97
2019-02-27T05:11:27.078Z,56.10
2019-02-27T05:13:54.979Z,56.83
2019-02-27T05:16:22.938Z,54.37
2019-02-27T05:18:50.506Z,53.87
2019-02-27T05:21:19.240Z,51.40
2019-02-27T05:23:47.461Z,51.17
2019-02-27T05:26:15.012Z,50.90
2019-02-27T05:28:42.577Z,54.63
2019-02-27T05:31:10.040Z,53.90
2019-02-27T05:33:39.692Z,57.73
2019-02-27T05:36:07.058Z,61.53
2019-02-27T05:38:35.021Z,56.20
2019-02-27T05:41:02.530Z,59.87
2019-02-27T05:43:30.086Z,60.60
2019-02-27T05:45:57.760Z,63.37
2019-02-27T05:48:26.087Z,62.50
2019-02-27T05:50:53.542Z,65.30
2019-02-27T05:53:22.385Z,59.20
2019-02-27T05:55:52.830Z,65.90
2019-02-27T05:58:22.996Z,66.53
2019-02-27T06:00:50.505Z,66.47
2019-02-27T06:03:18.297Z,61.57
2019-02-27T06:05:49.540Z,63.50
2019-02-27T06:08:15.982Z,64.10
2019-02-27T06:10:43.842Z,66.30
2019-02-27T06:13:14.065Z,64.10
2019-02-27T06:15:41.308Z,63.30
2019-02-27T06:18:08.847Z,59.60
2019-02-27T06:20:38.937Z,57.83
2019-02-27T06:23:07.277Z,58.37
2019-02-27T06:25:34.863Z,54.87
2019-02-27T06:28:04.224Z,57.50
2019-02-27T06:30:31.752Z,57.27
2019-02-27T06:32:59.323Z,56.47
2019-02-27T06:35:28.058Z,59.83
2019-02-27T06:37:55.756Z,58.90
2019-02-27T06:40:23.869Z,58.63
2019-02-27T06:42:53.961Z,59.87
2019-02-27T06:45:21.116Z,56.20
2019-02-27T06:47:48.685Z,79.05
2019-02-27T06:50:16.253Z,74.10
2019-02-27T06:52:43.955Z,68.73
2019-02-27T06:55:13.258Z,68.60
2019-02-27T06:57:41.861Z,63.80
2019-02-27T07:00:13.689Z,67.77
2019-02-27T07:02:41.625Z,66.13
2019-02-27T07:05:13.265Z,69.10
2019-02-27T07:07:38.825Z,64.00
2019-02-27T07:10:07.078Z,56.83
2019-02-27T07:12:34.573Z,52.90
2019-02-27T07:15:02.461Z,48.53
2019-02-27T07:17:31.864Z,39.80
2019-02-27T07:19:59.379Z,38.43
2019-02-27T07:22:26.934Z,36.90
2019-02-27T07:24:54.493Z,35.93
2019-02-27T07:27:22.337Z,32.40
2019-02-27T07:29:49.945Z,29.10
2019-02-27T07:32:24.223Z,27.13
2019-02-27T07:34:51.800Z,24.30
2019-02-27T07:37:19.253Z,22.07
2019-02-27T07:42:38.025Z,17.27
2019-02-27T07:45:08.083Z,15.03
2019-02-27T07:47:35.672Z,14.93
2019-02-27T07:50:06.366Z,14.93
2019-02-27T07:52:33.346Z,13.07
2019-02-27T07:55:01.093Z,11.97
2019-02-27T07:57:29.705Z,13.27
2019-02-27T07:59:57.268Z,12.30
2019-02-27T08:02:24.812Z,12.07
2019-02-27T08:04:54.740Z,13.83
2019-02-27T08:07:22.045Z,13.17
2019-02-27T08:09:49.619Z,13.27
2019-02-27T08:12:17.493Z,12.07
2019-02-27T08:14:47.611Z,12.27
2019-02-27T08:17:17.887Z,13.20
2019-02-27T08:19:45.974Z,12.83
2019-02-27T08:22:13.994Z,11.37
2019-02-27T08:24:41.636Z,11.63
2019-02-27T08:27:09.714Z,11.17
2019-02-27T08:29:38.413Z,11.10
2019-02-27T08:32:05.874Z,10.67
2019-02-27T08:34:33.752Z,12.40
2019-02-27T08:37:02.443Z,11.07
2019-02-27T08:39:30.309Z,10.70
2019-02-27T08:41:57.949Z,10.00
2019-02-27T08:44:25.541Z,10.98
2019-02-27T08:46:53.102Z,10.47
2019-02-27T08:49:24.221Z,10.03
2019-02-27T08:51:50.127Z,10.78
2019-02-27T08:54:17.615Z,9.78
2019-02-27T08:56:47.244Z,11.23
2019-02-27T08:59:14.854Z,10.72
2019-02-27T09:01:42.446Z,10.98
2019-02-27T09:04:12.236Z,10.68
2019-02-27T09:06:39.369Z,11.15
2019-02-27T09:09:07.956Z,11.00
2019-02-27T09:11:37.159Z,11.57
2019-02-27T09:14:05.560Z,10.85
2019-02-27T09:16:33.738Z,12.75
2019-02-27T09:19:01.235Z,11.22
2019-02-27T09:21:28.784Z,12.53
2019-02-27T09:23:56.774Z,14.23
2019-02-27T09:26:24.978Z,13.48
2019-02-27T09:28:52.835Z,15.85
2019-02-27T09:31:21.013Z,16.05
2019-02-27T09:33:53.070Z,17.12
2019-02-27T09:36:17.946Z,22.00
2019-02-27T09:38:45.502Z,22.17
2019-02-27T09:41:13.371Z,21.17
2019-02-27T09:43:40.985Z,20.72
2019-02-27T09:46:08.543Z,18.57
2019-02-27T09:48:36.282Z,14.38
2019-02-27T09:51:04.293Z,12.18
2019-02-27T09:53:33.957Z,11.18
2019-02-27T09:56:01.209Z,10.38
2019-02-27T09:58:29.894Z,11.22
2019-02-27T10:01:00.746Z,10.75
2019-02-27T10:03:28.602Z,10.00
2019-02-27T10:05:56.218Z,10.55
2019-02-27T10:08:25.240Z,11.35
2019-02-27T10:10:53.206Z,10.10
2019-02-27T10:13:21.102Z,11.90
2019-02-27T10:15:48.651Z,10.85
2019-02-27T10:18:18.977Z,10.60
2019-02-27T10:20:46.120Z,10.23
2019-02-27T10:23:13.705Z,10.70
2019-02-27T10:25:43.589Z,11.20
2019-02-27T10:28:10.986Z,10.28
2019-02-27T10:30:38.746Z,10.90
2019-02-27T10:33:06.318Z,10.93
2019-02-27T10:35:34.977Z,11.35
2019-02-27T10:38:03.026Z,10.98
2019-02-27T10:40:30.681Z,10.80
2019-02-27T10:42:58.233Z,12.73
2019-02-27T10:45:26.120Z,12.33
2019-02-27T10:47:53.658Z,12.53
2019-02-27T10:50:21.261Z,12.13
2019-02-27T10:52:50.121Z,12.07
2019-02-27T10:55:17.985Z,11.80
2019-02-27T10:57:45.607Z,11.73
2019-02-27T11:00:25.898Z,11.90
2019-02-27T11:02:54.214Z,13.22
2019-02-27T11:05:21.942Z,12.58
2019-02-27T11:07:50.096Z,11.65
2019-02-27T11:10:19.560Z,13.40
2019-02-27T11:12:47.255Z,12.28
2019-02-27T11:15:15.570Z,12.75
2019-02-27T11:17:43.189Z,13.15
2019-02-27T11:20:11.245Z,13.15
2019-02-27T11:22:39.041Z,12.75
2019-02-27T11:25:09.089Z,12.20
2019-02-27T11:27:39.013Z,12.70
2019-02-27T11:30:09.894Z,13.85
2019-02-27T11:32:37.892Z,13.10
2019-02-27T11:35:05.829Z,12.78
2019-02-27T11:37:33.451Z,13.00
2019-02-27T11:40:01.180Z,14.65
2019-02-27T11:42:28.951Z,14.58
2019-02-27T11:44:58.605Z,12.55
2019-02-27T11:47:26.323Z,14.38
2019-02-27T11:49:53.935Z,13.70
2019-02-27T11:52:21.906Z,13.95
2019-02-27T11:54:49.822Z,13.40
2019-02-27T11:57:17.419Z,14.50
2019-02-27T11:59:47.017Z,14.55
2019-02-27T12:02:15.056Z,15.18
2019-02-27T12:04:42.698Z,12.88
2019-02-27T12:07:12.225Z,12.82
2019-02-27T12:09:40.427Z,14.75
2019-02-27T12:12:13.349Z,15.25
2019-02-27T12:14:40.880Z,14.90
2019-02-27T12:17:08.550Z,15.75
2019-02-27T12:19:36.168Z,15.23
2019-02-27T12:22:04.113Z,15.78
2019-02-27T12:24:31.713Z,15.43
2019-02-27T12:26:59.310Z,15.83
2019-02-27T12:29:27.354Z,15.88
2019-02-27T12:31:55.174Z,17.80
2019-02-27T12:34:23.062Z,17.15
2019-02-27T12:36:52.550Z,16.67
2019-02-27T12:39:20.114Z,17.75
2019-02-27T12:41:47.732Z,16.37
2019-02-27T12:44:15.223Z,16.23
2019-02-27T12:46:42.899Z,16.42
2019-02-27T12:49:10.489Z,16.48
2019-02-27T12:51:38.291Z,16.50
2019-02-27T12:54:06.738Z,18.27
2019-02-27T12:56:34.417Z,17.98
2019-02-27T12:59:02.106Z,18.52
2019-02-27T13:01:29.736Z,18.70
2019-02-27T13:03:57.906Z,18.80
2019-02-27T13:06:25.815Z,17.90
2019-02-27T13:08:53.534Z,19.25
2019-02-27T13:11:21.109Z,18.23
2019-02-27T13:13:48.621Z,18.20
2019-02-27T13:16:16.273Z,18.45
2019-02-27T13:18:43.856Z,18.82
2019-02-27T13:21:11.727Z,18.48
2019-02-27T13:23:42.241Z,18.35
2019-02-27T13:26:08.857Z,18.57
2019-02-27T13:28:36.437Z,19.57
2019-02-27T13:31:04.384Z,18.32
2019-02-27T13:33:32.934Z,18.17
2019-02-27T13:36:01.488Z,20.12
2019-02-27T13:38:29.139Z,18.90
2019-02-27T13:40:56.876Z,19.48
2019-02-27T13:43:27.143Z,19.12
2019-02-27T13:45:54.270Z,19.37
2019-02-27T13:48:21.993Z,19.48
2019-02-27T13:50:49.792Z,20.08
2019-02-27T13:53:17.421Z,21.20
2019-02-27T13:55:48.311Z,19.10
2019-02-27T13:58:14.750Z,21.37
2019-02-27T14:00:42.703Z,20.17
2019-02-27T14:03:12.650Z,21.75
2019-02-27T14:05:39.583Z,20.50
2019-02-27T14:08:07.078Z,19.70
2019-02-27T14:10:34.997Z,21.15
2019-02-27T14:13:02.911Z,21.10
2019-02-27T14:15:31.636Z,21.65
2019-02-27T14:17:59.563Z,22.25
2019-02-27T14:20:28.941Z,20.65
2019-02-27T14:22:56.874Z,21.25
2019-02-27T14:25:28.481Z,21.55
2019-02-27T14:27:54.409Z,22.55
2019-02-27T14:30:26.307Z,21.25
2019-02-27T14:32:53.902Z,20.82
2019-02-27T14:35:21.372Z,21.50
2019-02-27T14:37:50.162Z,21.70
2019-02-27T14:40:18.809Z,21.05
2019-02-27T14:42:46.418Z,22.73
2019-02-27T14:45:15.120Z,22.35
2019-02-27T14:47:42.615Z,22.50
2019-02-27T14:50:11.782Z,22.70
2019-02-27T14:52:39.983Z,21.65
2019-02-27T14:55:08.139Z,22.95
2019-02-27T14:57:35.814Z,23.52
2019-02-27T15:00:05.657Z,23.55
2019-02-27T15:02:34.029Z,23.85
2019-02-27T15:05:06.082Z,23.42
2019-02-27T15:07:31.402Z,23.12
2019-02-27T15:09:59.310Z,24.92
2019-02-27T15:12:26.871Z,23.60
2019-02-27T15:14:54.763Z,23.22
2019-02-27T15:17:23.452Z,22.07
2019-02-27T15:19:51.722Z,24.65
2019-02-27T15:22:20.561Z,25.10
2019-02-27T15:24:48.269Z,24.30
2019-02-27T15:27:15.761Z,23.25
2019-02-27T15:29:43.311Z,24.02
2019-02-27T15:32:10.904Z,23.35
2019-02-27T15:34:38.451Z,24.10
2019-02-27T15:37:06.105Z,21.93
2019-02-27T15:39:33.759Z,23.35
2019-02-27T15:42:08.717Z,23.25
2019-02-27T15:44:35.224Z,23.10
2019-02-27T15:47:03.033Z,23.00
2019-02-27T15:49:30.745Z,22.95
2019-02-27T15:51:58.441Z,22.90
2019-02-27T15:54:26.076Z,23.00
2019-02-27T15:56:55.118Z,22.60
2019-02-27T15:59:23.734Z,21.93
2019-02-27T16:01:51.475Z,22.73
2019-02-27T16:04:21.127Z,23.22
2019-02-27T16:06:51.130Z,21.68
2019-02-27T16:09:18.388Z,23.35
2019-02-27T16:11:48.104Z,23.18
2019-02-27T16:14:15.678Z,23.05
2019-02-27T16:16:43.655Z,23.25
2019-02-27T16:19:11.604Z,23.12
2019-02-27T16:21:39.206Z,22.95
2019-02-27T16:24:09.580Z,21.80
2019-02-27T16:26:38.013Z,31.80
2019-02-27T16:29:05.581Z,32.58
2019-02-27T16:31:37.139Z,33.63
2019-02-27T16:34:04.714Z,34.03
2019-02-27T16:36:36.153Z,34.03
2019-02-27T16:39:06.949Z,34.58
2019-02-27T16:41:30.983Z,33.05
2019-02-27T16:43:58.539Z,33.50
2019-02-27T16:46:26.361Z,33.08
2019-02-27T16:48:54.255Z,34.35
2019-02-27T16:51:21.713Z,32.83
2019-02-27T16:53:52.378Z,34.00
2019-02-27T16:56:18.956Z,34.15
2019-02-27T16:58:46.569Z,33.08
2019-02-27T17:01:14.657Z,33.53
2019-02-27T17:03:45.017Z,36.55
2019-02-27T17:06:17.170Z,34.43
2019-02-27T17:08:42.180Z,32.67
2019-02-27T17:11:10.446Z,32.42
2019-02-27T17:13:38.045Z,31.00
2019-02-27T17:16:07.129Z,34.18
2019-02-27T17:18:35.143Z,31.75
2019-02-27T17:21:03.250Z,38.45
2019-02-27T17:23:30.810Z,36.53
2019-02-27T17:26:03.401Z,35.75
2019-02-27T17:28:28.211Z,36.20
2019-02-27T17:30:56.002Z,37.88
2019-02-27T17:33:23.526Z,38.98
2019-02-27T17:35:53.040Z,38.08
2019-02-27T17:38:20.639Z,41.02
2019-02-27T17:40:48.284Z,42.07
2019-02-27T17:43:15.831Z,41.47
2019-02-27T17:45:44.343Z,43.70
2019-02-27T17:48:17.715Z,41.50
2019-02-27T17:50:45.711Z,41.50
2019-02-27T17:53:13.271Z,43.17
2019-02-27T17:55:41.546Z,43.53
2019-02-27T17:58:10.165Z,43.77
2019-02-27T18:00:40.045Z,43.52
2019-02-27T18:03:07.631Z,44.87
2019-02-27T18:05:35.928Z,45.83
2019-02-27T18:08:05.092Z,48.03
2019-02-27T18:10:37.151Z,48.67
2019-02-27T18:13:02.797Z,45.30
2019-02-27T18:15:30.537Z,46.70
2019-02-27T18:17:58.224Z,48.03
2019-02-27T18:20:26.180Z,52.67
2019-02-27T18:22:53.766Z,52.47
2019-02-27T18:25:21.687Z,56.33
2019-02-27T18:27:49.283Z,56.30
2019-02-27T18:30:18.789Z,56.30
2019-02-27T18:32:46.658Z,58.37
2019-02-27T18:35:14.422Z,56.73
2019-02-27T18:37:42.245Z,54.43
2019-02-27T18:40:11.165Z,53.90
2019-02-27T18:42:40.067Z,52.97
2019-02-27T18:45:08.512Z,52.40
2019-02-27T18:47:36.497Z,53.73
2019-02-27T18:50:04.370Z,51.37
2019-02-27T18:52:31.925Z,56.33
2019-02-27T18:55:00.038Z,58.47
2019-02-27T18:57:27.939Z,61.23
2019-02-27T18:59:57.409Z,61.47
2019-02-27T19:02:24.979Z,60.03
2019-02-27T19:04:52.651Z,62.53
2019-02-27T19:07:23.628Z,63.27
2019-02-27T19:09:51.400Z,61.03
2019-02-27T19:12:19.176Z,60.63
2019-02-27T19:14:46.670Z,61.33
2019-02-27T19:17:14.762Z,65.10
2019-02-27T19:19:42.955Z,62.50
2019-02-27T19:22:11.329Z,60.93
2019-02-27T19:24:39.408Z,61.30
2019-02-27T19:27:07.023Z,60.00
2019-02-27T19:29:34.604Z,67.53
2019-02-27T19:32:02.196Z,72.70
2019-02-27T19:34:29.745Z,73.57
2019-02-27T19:36:57.419Z,76.53
2019-02-27T19:39:24.999Z,76.73
2019-02-27T19:41:52.748Z,82.63
2019-02-27T19:44:20.302Z,83.23
2019-02-27T19:46:47.945Z,94.83
2019-02-27T19:49:15.513Z,83.57
2019-02-27T19:51:45.034Z,82.43
2019-02-27T19:54:14.882Z,85.23
2019-02-27T19:56:42.137Z,103.97
2019-02-27T19:59:09.646Z,89.50
2019-02-27T20:01:37.210Z,95.27
2019-02-27T20:04:09.062Z,88.13
2019-02-27T20:06:34.272Z,89.33
2019-02-27T20:09:01.837Z,91.47
2019-02-27T20:11:29.732Z,92.10
2019-02-27T20:14:02.134Z,91.53
2019-02-27T20:16:27.313Z,101.00
2019-02-27T20:18:55.295Z,110.30
2019-02-27T20:21:22.982Z,97.93
2019-02-27T20:23:50.530Z,98.30
2019-02-27T20:26:21.031Z,97.40
2019-02-27T20:28:47.545Z,98.70
2019-02-27T20:31:17.957Z,102.37
2019-02-27T20:33:44.967Z,105.00
2019-02-27T20:36:13.055Z,106.00
2019-02-27T20:38:40.996Z,100.10
2019-02-27T20:41:09.003Z,96.07
2019-02-27T20:43:36.677Z,95.97
2019-02-27T20:46:04.431Z,95.03
2019-02-27T20:48:36.161Z,100.03
2019-02-27T20:51:02.828Z,106.37
2019-02-27T20:53:32.007Z,111.87
2019-02-27T20:56:03.013Z,105.47
2019-02-27T20:58:29.171Z,110.50
2019-02-27T21:00:56.962Z,112.50
2019-02-27T21:03:27.182Z,102.27
2019-02-27T21:05:54.156Z,106.03
2019-02-27T21:08:22.196Z,116.83
2019-02-27T21:10:54.732Z,119.63
2019-02-27T21:13:19.596Z,128.03
2019-02-27T21:15:47.212Z,128.43
2019-02-27T21:18:14.820Z,119.17
2019-02-27T21:20:45.292Z,126.00
2019-02-27T21:23:12.294Z,117.70
2019-02-27T21:25:39.912Z,115.47
2019-02-27T21:28:08.619Z,113.40
2019-02-27T21:30:36.241Z,113.40
2019-02-27T21:33:04.111Z,113.53
2019-02-27T21:35:31.653Z,113.97
2019-02-27T21:37:59.155Z,114.73
2019-02-27T21:40:27.123Z,117.27
2019-02-27T21:42:54.739Z,121.67
2019-02-27T21:45:22.472Z,120.53
2019-02-27T21:47:51.796Z,130.07
2019-02-27T21:50:20.253Z,129.17
2019-02-27T21:52:47.978Z,134.53
2019-02-27T21:55:15.590Z,129.10
2019-02-27T21:57:43.247Z,139.03
2019-02-27T22:00:14.041Z,134.87
2019-02-27T22:02:43.001Z,137.13
2019-02-27T22:05:10.873Z,146.13
2019-02-27T22:07:38.502Z,142.77
2019-02-27T22:10:07.449Z,137.07
2019-02-27T22:12:35.221Z,139.33
2019-02-27T22:15:04.817Z,136.73
2019-02-27T22:17:32.442Z,140.30
2019-02-27T22:20:00.138Z,135.47
2019-02-27T22:22:28.354Z,129.00
2019-02-27T22:24:56.371Z,129.20
2019-02-27T22:27:24.084Z,126.60
2019-02-27T22:29:52.580Z,126.83
2019-02-27T22:32:20.393Z,122.20
2019-02-27T22:34:48.049Z,129.13
2019-02-27T22:37:18.427Z,129.77
2019-02-27T22:39:45.063Z,146.70
2019-02-27T22:42:14.760Z,142.80
2019-02-27T22:44:42.188Z,138.77
2019-02-27T22:47:09.773Z,145.47
2019-02-27T22:49:37.885Z,149.57
2019-02-27T22:52:05.480Z,144.47
2019-02-27T22:54:33.205Z,155.77
2019-02-27T22:57:02.536Z,158.17
2019-02-27T22:59:30.312Z,155.57
2019-02-27T23:01:57.905Z,156.53
2019-02-27T23:04:25.522Z,153.90
2019-02-27T23:06:53.096Z,158.00
2019-02-27T23:09:21.746Z,156.07
2019-02-27T23:11:49.675Z,157.43
2019-02-27T23:14:18.848Z,159.43
2019-02-27T23:16:46.881Z,160.20
2019-02-27T23:19:14.915Z,163.80
2019-02-27T23:21:42.540Z,158.70
2019-02-27T23:24:10.977Z,167.67
2019-02-27T23:26:38.684Z,174.87
2019-02-27T23:29:06.539Z,179.70
2019-02-27T23:31:34.189Z,177.97
2019-02-27T23:34:01.729Z,178.37
2019-02-27T23:36:29.504Z,178.93
2019-02-27T23:38:57.298Z,172.97
2019-02-27T23:41:24.739Z,177.77
2019-02-27T23:43:52.204Z,174.60
2019-02-27T23:46:19.863Z,174.03
2019-02-27T23:48:47.803Z,177.57
2019-02-27T23:51:16.714Z,173.43
2019-02-27T23:53:44.924Z,199.80
2019-02-27T23:56:12.468Z,230.77
2019-02-27T23:58:40.058Z,225.40
